KBQP

Morehouse Memorial Airport

Bastrop, Louisiana, USA
METAR KBQP 241955Z AUTO 17014G22KT 10SM SCT035 SCT041 25/18 A2987 RMK AO2 T02510180
Observed Flight Rules
Feb-24 @ 19:55 UTC (20 minutes ago) Visual Flight Rules
Wind Visibility Clouds
170° at 14 knots
 Gusting to 22 knots
10 miles
  • Scattered at 3,500' AGL
  • Scattered at 4,100' AGL
Temperatures Readings
Current 25°C / 77°F
Dewpoint 18°C / 64°F
Humidity 65%
Altimeter 29.87" Hg
Pressure 1012 hPa
Elevation 51
METAR KBQP 241955Z AUTO 17014G22KT 10SM SCT035 SCT041 25/18 A2987 RMK AO2 T02510180
Observed Flight Rules
Feb-24 @ 19:55 UTC
(20 minutes ago)
VFR
Wind Visibility
170° at 14 knots
 Gusting to 22 knots
10 miles
Clouds
  • Scattered at 3,500' AGL
  • Scattered at 4,100' AGL
Temperature Dewpoint
25°C / 77°F 18°C / 64°F
Humidity Altimeter Pressure
65% 29.87" Hg 1012 hPa